Time;durP1;ratioP1;P1;durP2;ratioP2;P2;SDS_P1;SDS_P2;PMS_P1;PMS_P2;Temp;Humidity;BMP_temperature;BMP_pressure;BME280_temperature;BME280_humidity;BME280_pressure;Samples;Min_cycle;Max_cycle;Signal;HPM_P1;HPM_P2
2021/01/27 00:00:36;;;;;;;5.70;4.67;;;;;;;1.83;62.70;96911.69;5093431;28;20423;-65
2021/01/27 00:03:02;;;;;;;7.77;4.53;;;;;;;1.66;63.40;96906.88;5089763;28;20425;-67
2021/01/27 00:05:31;;;;;;;8.53;5.33;;;;;;;1.72;62.78;96903.03;5093523;28;20193;-66
2021/01/27 00:07:58;;;;;;;7.30;5.10;;;;;;;1.55;63.76;96905.00;5093852;28;20479;-68
2021/01/27 00:10:23;;;;;;;8.20;4.87;;;;;;;1.65;63.48;96905.22;5093374;28;20993;-68
2021/01/27 00:12:49;;;;;;;7.60;4.63;;;;;;;1.78;62.98;96912.94;5093637;28;20431;-65
2021/01/27 00:15:18;;;;;;;10.50;5.33;;;;;;;2.02;62.36;96901.88;5093560;28;20310;-67
2021/01/27 00:17:44;;;;;;;11.00;5.50;;;;;;;1.52;64.60;96910.38;5091963;28;20232;-66
2021/01/27 00:20:12;;;;;;;6.20;4.60;;;;;;;1.82;63.78;96902.31;5092746;28;20443;-66
2021/01/27 00:22:38;;;;;;;10.20;5.53;;;;;;;1.49;65.12;96895.09;5092745;28;20653;-66
2021/01/27 00:25:05;;;;;;;10.60;5.73;;;;;;;1.74;64.44;96894.25;5074416;28;20462;-67
2021/01/27 00:27:31;;;;;;;8.10;5.50;;;;;;;2.12;63.13;96885.59;5091163;28;20680;-66
2021/01/27 00:29:58;;;;;;;7.67;5.77;;;;;;;1.94;64.14;96884.31;5091864;28;20468;-67
2021/01/27 00:32:23;;;;;;;7.30;5.83;;;;;;;2.20;63.21;96874.72;5090820;28;20169;-65
2021/01/27 00:34:49;;;;;;;14.27;5.83;;;;;;;2.34;63.05;96870.34;5092017;28;20829;-66
2021/01/27 00:37:15;;;;;;;8.73;5.20;;;;;;;2.38;62.79;96867.44;5073808;28;20227;-66
2021/01/27 00:39:40;;;;;;;12.30;6.37;;;;;;;2.34;62.83;96865.16;5091798;28;20177;-65
2021/01/27 00:42:06;;;;;;;9.20;6.93;;;;;;;2.35;62.77;96865.06;5091842;28;20182;-65
2021/01/27 00:44:32;;;;;;;16.33;6.70;;;;;;;2.19;63.43;96883.41;5092065;28;20194;-65
2021/01/27 00:46:57;;;;;;;10.17;7.40;;;;;;;2.22;63.44;96874.59;5091841;28;20273;-67
2021/01/27 00:49:23;;;;;;;7.47;6.37;;;;;;;2.05;63.70;96876.63;5091778;28;20174;-66
2021/01/27 00:51:50;;;;;;;9.27;6.83;;;;;;;1.86;64.66;96864.16;5091367;28;20177;-66
2021/01/27 00:54:15;;;;;;;13.63;7.90;;;;;;;1.69;65.10;96860.97;5091588;28;20419;-65
2021/01/27 00:56:41;;;;;;;10.17;7.47;;;;;;;2.13;64.19;96842.50;5092031;28;20418;-64
2021/01/27 00:59:07;;;;;;;12.87;8.10;;;;;;;1.99;65.02;96846.88;5091378;28;20169;-65
2021/01/27 01:01:32;;;;;;;9.73;7.37;;;;;;;2.27;64.14;96849.25;5091592;28;20182;-65
2021/01/27 01:03:58;;;;;;;13.00;7.70;;;;;;;2.33;63.96;96843.66;5091524;28;20184;-67
2021/01/27 01:06:24;;;;;;;9.30;7.20;;;;;;;2.55;63.48;96847.28;5091573;28;20817;-65
2021/01/27 01:08:50;;;;;;;10.90;7.43;;;;;;;2.14;64.51;96849.31;5091010;28;20190;-65
2021/01/27 01:11:16;;;;;;;9.03;7.40;;;;;;;2.25;64.26;96844.22;5089193;28;20177;-65
2021/01/27 01:13:41;;;;;;;13.57;8.90;;;;;;;2.21;64.34;96844.50;5091945;28;20173;-66
2021/01/27 01:16:07;;;;;;;13.07;8.67;;;;;;;2.19;64.80;96841.22;5091596;28;20411;-67
2021/01/27 01:18:33;;;;;;;13.03;8.07;;;;;;;2.18;64.67;96845.56;5091474;28;20195;-66
2021/01/27 01:20:58;;;;;;;13.53;8.43;;;;;;;2.38;64.01;96845.94;5091290;28;20795;-66
2021/01/27 01:23:24;;;;;;;12.93;8.27;;;;;;;2.27;64.62;96844.91;5091240;28;20185;-66
2021/01/27 01:25:50;;;;;;;8.77;7.50;;;;;;;2.26;64.88;96840.69;5091213;28;20676;-67
2021/01/27 01:28:16;;;;;;;14.00;8.07;;;;;;;2.03;65.86;96836.28;5091518;28;20567;-67
2021/01/27 01:30:44;;;;;;;12.00;8.13;;;;;;;1.93;66.27;96841.31;5085754;28;20192;-67
2021/01/27 01:33:11;;;;;;;13.13;8.43;;;;;;;1.46;67.17;96834.13;5091343;28;20422;-66
2021/01/27 01:35:37;;;;;;;11.60;7.60;;;;;;;2.24;65.10;96831.38;5090913;28;20451;-66
2021/01/27 01:38:04;;;;;;;13.03;7.00;;;;;;;1.95;65.86;96813.59;5091327;28;20477;-67
2021/01/27 01:40:32;;;;;;;9.70;7.27;;;;;;;1.30;67.74;96816.28;5091155;28;20759;-67
2021/01/27 01:43:28;;;;;;;10.37;7.77;;;;;;;1.85;65.79;96813.41;5090276;28;20802;-69
2021/01/27 01:45:59;;;;;;;14.77;6.93;;;;;;;1.51;66.41;96810.59;5090894;28;20450;-66
2021/01/27 01:48:41;;;;;;;11.00;7.10;;;;;;;1.56;65.87;96797.34;5090846;28;20443;-66
2021/01/27 01:51:25;;;;;;;12.03;6.90;;;;;;;1.57;66.35;96796.44;5088516;28;20446;-66
2021/01/27 01:53:55;;;;;;;10.30;7.10;;;;;;;1.67;66.00;96812.94;5092895;28;20423;-67
2021/01/27 01:56:24;;;;;;;11.10;7.80;;;;;;;1.65;66.42;96802.69;5091194;28;20446;-65
2021/01/27 01:58:54;;;;;;;9.23;6.63;;;;;;;1.77;65.82;96802.75;5089520;28;20427;-66
2021/01/27 02:01:21;;;;;;;9.53;6.87;;;;;;;1.59;66.53;96804.88;5085627;28;20502;-67
2021/01/27 02:03:48;;;;;;;13.13;7.40;;;;;;;1.61;66.33;96796.09;5091457;28;20424;-66
2021/01/27 02:06:15;;;;;;;10.73;7.90;;;;;;;1.48;66.53;96783.19;5095829;28;20957;-66
2021/01/27 02:08:43;;;;;;;9.93;7.10;;;;;;;1.37;66.95;96777.94;5096096;28;20474;-67
2021/01/27 02:11:11;;;;;;;12.77;7.30;;;;;;;1.66;65.67;96788.84;5096280;28;20426;-65
2021/01/27 02:14:04;;;;;;;11.30;7.40;;;;;;;1.90;65.73;96782.06;5094903;28;20567;-66
2021/01/27 02:16:50;;;;;;;11.13;6.90;;;;;;;2.02;65.26;96772.63;5089382;28;20921;-65
2021/01/27 02:19:44;;;;;;;11.10;7.17;;;;;;;1.59;66.78;96761.78;5093034;28;20415;-64
2021/01/27 02:22:25;;;;;;;8.30;6.90;;;;;;;1.82;65.52;96756.75;5094595;28;20440;-65
2021/01/27 02:25:02;;;;;;;10.13;6.60;;;;;;;2.08;64.85;96752.31;5094019;28;20838;-65
2021/01/27 02:28:03;;;;;;;9.33;6.77;;;;;;;2.12;64.46;96750.34;5094998;28;20438;-66
2021/01/27 02:31:11;;;;;;;12.90;7.50;;;;;;;2.06;64.56;96753.34;5121930;27;20426;-65
2021/01/27 02:33:51;;;;;;;9.03;7.03;;;;;;;1.73;65.92;96752.25;5122876;27;21019;-66
2021/01/27 02:36:20;;;;;;;9.97;6.40;;;;;;;1.94;65.28;96755.88;5119807;27;20399;-67
2021/01/27 02:38:53;;;;;;;9.27;7.50;;;;;;;2.03;64.54;96753.56;5117433;27;20437;-67
2021/01/27 02:41:50;;;;;;;19.30;7.50;;;;;;;1.43;66.77;96767.22;5109315;28;20990;-66
2021/01/27 02:44:19;;;;;;;11.93;8.60;;;;;;;1.31;67.11;96763.69;5113848;27;20436;-65
2021/01/27 02:46:53;;;;;;;10.00;7.30;;;;;;;1.73;66.27;96757.41;5131800;27;20509;-66
2021/01/27 02:49:22;;;;;;;12.83;7.80;;;;;;;1.64;66.32;96756.31;5132388;27;20421;-66
2021/01/27 02:52:01;;;;;;;9.63;6.70;;;;;;;1.50;66.94;96757.28;5131975;27;20479;-66
2021/01/27 02:54:37;;;;;;;11.13;7.53;;;;;;;1.27;67.41;96754.50;5115027;27;20418;-66
2021/01/27 02:57:19;;;;;;;12.43;7.70;;;;;;;1.33;67.50;96745.50;5131612;27;20438;-65
2021/01/27 02:59:54;;;;;;;12.67;7.67;;;;;;;1.26;68.04;96750.25;5131843;27;20940;-67
2021/01/27 03:02:28;;;;;;;11.10;7.50;;;;;;;1.34;67.11;96753.16;5114807;27;20784;-64
2021/01/27 03:05:02;;;;;;;10.03;7.47;;;;;;;1.68;66.06;96755.97;5130916;27;21002;-68
2021/01/27 03:07:29;;;;;;;11.90;6.90;;;;;;;2.07;65.13;96740.34;5078210;28;20790;-66
2021/01/27 03:10:00;;;;;;;8.60;6.97;;;;;;;2.04;64.94;96735.38;5092203;28;20918;-66
2021/01/27 03:12:26;;;;;;;9.10;7.00;;;;;;;1.62;66.83;96740.91;5092290;28;20498;-66
2021/01/27 03:14:51;;;;;;;9.20;6.30;;;;;;;1.57;67.21;96735.25;5091998;28;20507;-67
2021/01/27 03:17:19;;;;;;;9.73;6.40;;;;;;;1.44;67.03;96739.59;5093202;28;20232;-68
2021/01/27 03:20:07;;;;;;;8.43;6.27;;;;;;;1.78;66.31;96744.97;5089022;28;20256;-67
2021/01/27 03:22:45;;;;;;;10.80;6.30;;;;;;;1.54;66.14;96743.19;5093059;28;20424;-66
2021/01/27 03:25:12;;;;;;;14.50;6.37;;;;;;;1.33;67.10;96740.34;5091775;28;20447;-66
2021/01/27 03:27:42;;;;;;;7.70;6.20;;;;;;;1.15;67.03;96732.09;5091785;28;20446;-67
2021/01/27 03:30:11;;;;;;;8.47;6.40;;;;;;;1.12;67.34;96733.16;5091541;28;20531;-66
2021/01/27 03:32:49;;;;;;;13.90;6.40;;;;;;;1.29;66.76;96729.41;5091781;28;20541;-67
2021/01/27 03:35:29;;;;;;;12.00;6.10;;;;;;;1.57;65.98;96722.31;5092097;28;20412;-68
2021/01/27 03:38:00;;;;;;;9.10;6.30;;;;;;;1.12;67.22;96716.84;5092217;28;20467;-66
2021/01/27 03:40:27;;;;;;;7.10;5.90;;;;;;;1.32;65.92;96718.88;5066542;28;20444;-66
2021/01/27 03:42:55;;;;;;;8.43;5.70;;;;;;;1.66;66.04;96718.28;5089138;28;20948;-66
2021/01/27 03:45:23;;;;;;;10.20;6.00;;;;;;;1.24;66.61;96721.16;5093066;28;20966;-68
2021/01/27 03:47:56;;;;;;;8.40;5.60;;;;;;;1.36;66.17;96720.31;5091555;28;20440;-66
2021/01/27 03:50:25;;;;;;;7.37;5.83;;;;;;;1.18;66.63;96717.25;5091694;28;20415;-66
2021/01/27 03:52:56;;;;;;;6.33;4.90;;;;;;;1.50;65.26;96713.38;5091526;28;20409;-65
2021/01/27 03:55:54;;;;;;;10.33;5.87;;;;;;;1.43;65.83;96715.56;5092930;28;20465;-66
2021/01/27 03:58:20;;;;;;;9.30;5.90;;;;;;;1.79;64.76;96700.13;5071189;28;20421;-66
2021/01/27 04:00:46;;;;;;;6.80;5.50;;;;;;;1.54;65.29;96701.88;5084965;28;20419;-66
2021/01/27 04:03:17;;;;;;;6.60;5.43;;;;;;;1.66;64.63;96685.50;5092904;28;20174;-68
2021/01/27 04:05:43;;;;;;;7.87;5.00;;;;;;;2.13;63.37;96687.38;5091169;28;20871;-67
2021/01/27 04:08:09;;;;;;;6.07;5.47;;;;;;;1.88;64.04;96701.22;5083353;28;21002;-67
2021/01/27 04:10:36;;;;;;;8.27;5.70;;;;;;;1.75;64.03;96698.72;5089509;28;20417;-67
2021/01/27 04:13:02;;;;;;;9.30;4.90;;;;;;;1.89;63.65;96698.53;5091672;28;20184;-65
2021/01/27 04:15:28;;;;;;;7.83;4.93;;;;;;;2.08;63.05;96689.44;5097308;28;20851;-67
2021/01/27 04:17:54;;;;;;;7.57;4.70;;;;;;;2.20;62.46;96688.56;5093810;28;20550;-67
2021/01/27 04:20:20;;;;;;;7.67;4.97;;;;;;;2.32;62.08;96686.00;5092225;28;20178;-66
2021/01/27 04:22:46;;;;;;;6.83;4.40;;;;;;;2.35;61.64;96681.41;5091096;28;20424;-66
2021/01/27 04:25:13;;;;;;;7.50;4.20;;;;;;;2.18;61.77;96668.94;5084728;28;20201;-67
2021/01/27 04:27:39;;;;;;;6.20;4.60;;;;;;;2.46;61.77;96670.28;5091002;28;20914;-66
2021/01/27 04:30:06;;;;;;;6.67;4.70;;;;;;;2.50;61.39;96653.59;5091861;28;20439;-67
2021/01/27 04:32:32;;;;;;;6.10;4.90;;;;;;;2.32;61.47;96642.03;5091923;28;20178;-66
2021/01/27 04:34:58;;;;;;;7.70;4.47;;;;;;;2.55;61.22;96645.50;5091780;28;20424;-68
2021/01/27 04:37:23;;;;;;;4.53;4.13;;;;;;;2.56;61.33;96636.78;5091922;28;20671;-68
2021/01/27 04:39:49;;;;;;;7.87;5.17;;;;;;;2.58;60.86;96622.78;5090396;28;20427;-66
2021/01/27 04:42:17;;;;;;;6.60;5.30;;;;;;;2.56;61.13;96626.44;5081990;28;20170;-67
2021/01/27 04:44:42;;;;;;;5.80;4.60;;;;;;;2.54;60.82;96616.19;5065393;28;20304;-67
2021/01/27 04:47:29;;;;;;;5.20;4.53;;;;;;;2.45;61.22;96606.56;5083425;28;20482;-66
2021/01/27 04:50:15;;;;;;;6.60;4.87;;;;;;;2.64;60.72;96603.38;5090411;28;20791;-66
2021/01/27 04:53:03;;;;;;;6.83;4.30;;;;;;;2.17;62.44;96611.19;5090493;28;20420;-67
2021/01/27 04:55:43;;;;;;;4.70;3.90;;;;;;;1.92;62.62;96615.59;5086048;28;20444;-67
2021/01/27 04:58:15;;;;;;;7.40;4.63;;;;;;;2.28;62.08;96613.81;5090722;28;20495;-66
2021/01/27 05:00:49;;;;;;;8.63;4.60;;;;;;;2.30;61.79;96611.94;5090212;28;20454;-67
2021/01/27 05:03:43;;;;;;;8.60;4.70;;;;;;;2.30;61.96;96605.94;5066277;28;20459;-66
2021/01/27 05:06:13;;;;;;;4.60;4.20;;;;;;;2.31;61.78;96610.19;5083230;28;20452;-67
2021/01/27 05:08:49;;;;;;;4.60;4.10;;;;;;;1.69;63.03;96614.72;5090330;28;20493;-67
2021/01/27 05:11:15;;;;;;;8.53;4.30;;;;;;;2.60;61.21;96605.38;5079485;28;20866;-65
2021/01/27 05:13:45;;;;;;;4.73;3.80;;;;;;;2.36;61.22;96599.50;5091156;28;20427;-66
2021/01/27 05:16:14;;;;;;;4.73;4.23;;;;;;;2.70;60.75;96596.91;5083276;28;20428;-66
2021/01/27 05:18:41;;;;;;;10.20;4.20;;;;;;;2.46;60.88;96584.91;5092146;28;20440;-66
2021/01/27 05:21:18;;;;;;;8.13;4.43;;;;;;;2.29;61.11;96579.25;5073189;28;20787;-66
2021/01/27 05:23:44;;;;;;;5.77;4.03;;;;;;;2.51;60.81;96572.47;5090223;28;20412;-66
2021/01/27 05:26:11;;;;;;;6.60;4.20;;;;;;;2.53;60.53;96565.38;5091288;28;20500;-66
2021/01/27 05:28:40;;;;;;;4.90;3.60;;;;;;;2.34;60.97;96563.38;5090172;28;20204;-66
2021/01/27 05:31:06;;;;;;;4.00;3.60;;;;;;;2.54;60.11;96572.22;5072587;28;20515;-66
2021/01/27 05:33:47;;;;;;;6.07;4.30;;;;;;;2.60;60.35;96563.16;5091475;28;20466;-66
2021/01/27 05:36:28;;;;;;;9.03;4.40;;;;;;;2.39;60.39;96568.22;5091292;28;20895;-67
2021/01/27 05:39:15;;;;;;;4.47;4.03;;;;;;;2.25;61.01;96564.09;5091858;28;20455;-66
2021/01/27 05:41:42;;;;;;;6.20;4.03;;;;;;;2.61;60.04;96560.47;5095248;28;20889;-67
2021/01/27 05:44:12;;;;;;;9.83;3.83;;;;;;;2.36;60.25;96566.69;5095162;28;20507;-66
2021/01/27 05:46:40;;;;;;;5.00;3.90;;;;;;;2.39;60.46;96558.69;5088910;28;20453;-66
2021/01/27 05:49:29;;;;;;;7.70;4.00;;;;;;;2.47;60.49;96560.69;5094922;28;20430;-67
2021/01/27 05:52:13;;;;;;;6.90;4.17;;;;;;;2.46;60.02;96546.13;5095104;28;20426;-66
2021/01/27 05:54:39;;;;;;;5.53;4.17;;;;;;;2.35;60.52;96556.47;5095431;28;20412;-66
2021/01/27 05:57:16;;;;;;;7.50;4.00;;;;;;;2.56;60.17;96551.41;5093481;28;20485;-66
2021/01/27 05:59:41;;;;;;;5.13;4.33;;;;;;;2.46;60.16;96546.13;5094052;28;20427;-66
2021/01/27 06:02:07;;;;;;;6.67;4.70;;;;;;;2.24;60.82;96554.69;5094878;28;20797;-66
2021/01/27 06:04:34;;;;;;;4.73;3.87;;;;;;;1.87;61.71;96557.44;5086544;28;20915;-66
2021/01/27 06:07:08;;;;;;;6.97;4.37;;;;;;;1.98;61.69;96566.06;5091719;28;20238;-68
2021/01/27 06:09:44;;;;;;;6.73;3.80;;;;;;;2.33;60.22;96559.19;5093949;28;20423;-67
2021/01/27 06:12:12;;;;;;;6.60;3.83;;;;;;;2.41;59.94;96556.81;5093582;28;20536;-66
2021/01/27 06:14:38;;;;;;;6.33;4.20;;;;;;;2.41;59.95;96545.63;5095227;28;20423;-67
2021/01/27 06:17:21;;;;;;;8.13;4.53;;;;;;;2.27;60.64;96541.53;5093438;28;20462;-67
2021/01/27 06:20:16;;;;;;;6.93;3.93;;;;;;;2.45;60.24;96542.72;5094462;28;20461;-67
2021/01/27 06:22:57;;;;;;;5.50;3.97;;;;;;;2.64;59.73;96545.66;5094913;28;20412;-66
2021/01/27 06:25:29;;;;;;;7.13;4.47;;;;;;;2.49;59.85;96543.31;5086448;28;20471;-66
2021/01/27 06:28:13;;;;;;;5.00;4.30;;;;;;;2.48;60.41;96541.66;5093861;28;20501;-68
2021/01/27 06:31:03;;;;;;;6.87;4.00;;;;;;;2.57;59.63;96543.53;5097823;28;20527;-67
2021/01/27 06:33:45;;;;;;;5.10;4.33;;;;;;;2.28;60.07;96541.41;5112564;28;20424;-66
2021/01/27 06:36:30;;;;;;;5.20;3.90;;;;;;;2.49;60.32;96543.31;5095905;28;20412;-66
2021/01/27 06:39:05;;;;;;;11.10;4.50;;;;;;;2.55;59.96;96550.56;5076905;28;20971;-67
2021/01/27 06:42:08;;;;;;;6.00;4.60;;;;;;;2.46;60.31;96548.72;5086465;28;20415;-67
2021/01/27 06:45:03;;;;;;;6.60;4.50;;;;;;;2.27;60.16;96550.09;5089783;28;20436;-67
2021/01/27 06:47:50;;;;;;;6.13;4.30;;;;;;;2.33;60.12;96558.34;5085185;28;20459;-67
2021/01/27 06:50:25;;;;;;;8.13;4.47;;;;;;;2.17;60.86;96558.69;5078905;28;20432;-66
2021/01/27 06:53:05;;;;;;;5.87;4.63;;;;;;;2.41;59.85;96548.22;5095149;28;20817;-67
2021/01/27 06:55:44;;;;;;;5.63;4.67;;;;;;;2.52;59.53;96542.22;5087406;28;20431;-68
2021/01/27 06:58:31;;;;;;;11.80;4.90;;;;;;;2.33;60.24;96538.50;5094940;28;20467;-67
2021/01/27 07:01:19;;;;;;;8.30;4.83;;;;;;;2.24;60.64;96542.59;5086658;28;20412;-67
2021/01/27 07:04:09;;;;;;;7.60;5.80;;;;;;;1.52;63.20;96539.25;5085688;28;20423;-67
2021/01/27 07:06:54;;;;;;;9.13;5.07;;;;;;;1.87;62.13;96547.94;5093986;28;20459;-67
2021/01/27 07:09:46;;;;;;;7.07;4.50;;;;;;;2.09;61.56;96552.31;5081460;28;20512;-66
2021/01/27 07:12:27;;;;;;;9.07;5.10;;;;;;;2.07;61.35;96558.53;5088595;28;20412;-67
2021/01/27 07:15:27;;;;;;;6.47;4.80;;;;;;;2.37;60.70;96555.41;5093064;28;20424;-68
2021/01/27 07:18:05;;;;;;;6.37;4.00;;;;;;;2.12;61.32;96565.00;5085693;28;20803;-68
2021/01/27 07:20:51;;;;;;;8.63;4.57;;;;;;;2.10;61.41;96564.31;5094933;28;20416;-68
2021/01/27 07:23:44;;;;;;;7.40;3.90;;;;;;;1.93;62.00;96560.41;5076588;28;20503;-67
2021/01/27 07:26:20;;;;;;;7.23;4.10;;;;;;;1.92;62.02;96568.28;5092343;28;20558;-67
2021/01/27 07:29:05;;;;;;;7.80;4.20;;;;;;;1.82;62.58;96568.97;5083877;28;20450;-67
2021/01/27 07:31:34;;;;;;;12.50;3.80;;;;;;;1.63;63.70;96569.50;5082434;28;20488;-70
2021/01/27 07:34:15;;;;;;;4.87;3.93;;;;;;;1.34;65.03;96582.75;5091127;28;20457;-67
2021/01/27 07:36:48;;;;;;;5.80;4.10;;;;;;;1.80;63.51;96577.75;5091128;28;20420;-68
2021/01/27 07:39:43;;;;;;;13.00;3.90;;;;;;;1.66;64.65;96587.31;5094760;28;20505;-68
2021/01/27 07:42:20;;;;;;;6.70;4.70;;;;;;;1.64;65.41;96594.34;5073896;28;20436;-68
2021/01/27 07:44:51;;;;;;;10.63;4.50;;;;;;;1.57;66.62;96589.78;5092859;28;20446;-67
2021/01/27 07:47:46;;;;;;;6.87;4.20;;;;;;;1.94;65.91;96587.06;5102099;28;20469;-67
2021/01/27 07:50:15;;;;;;;5.13;4.37;;;;;;;1.89;66.57;96596.91;5094945;28;20528;-67
2021/01/27 07:52:52;;;;;;;5.40;4.30;;;;;;;2.19;65.99;96583.47;5088020;28;20523;-67
2021/01/27 07:55:47;;;;;;;6.70;4.57;;;;;;;1.79;67.48;96579.50;5092648;28;20482;-67
2021/01/27 07:58:18;;;;;;;5.57;4.50;;;;;;;2.30;66.46;96586.06;5087032;28;20443;-67
2021/01/27 08:00:49;;;;;;;6.53;4.80;;;;;;;2.58;65.44;96576.22;5093711;28;20851;-70
2021/01/27 08:03:36;;;;;;;5.17;4.13;;;;;;;2.42;65.83;96586.09;5086455;28;20408;-67
2021/01/27 08:06:10;;;;;;;6.87;4.53;;;;;;;2.83;65.17;96579.50;5092732;28;20448;-66
2021/01/27 08:09:05;;;;;;;6.53;4.33;;;;;;;2.70;65.31;96586.56;5091900;28;20473;-66
2021/01/27 08:11:42;;;;;;;6.50;4.73;;;;;;;2.87;64.83;96593.84;5087519;28;20424;-67
2021/01/27 08:14:12;;;;;;;6.00;4.90;;;;;;;2.71;65.20;96603.75;5072426;28;20412;-67
2021/01/27 08:16:41;;;;;;;7.07;4.63;;;;;;;2.15;66.56;96601.00;5089878;28;20946;-67
2021/01/27 08:19:07;;;;;;;7.03;4.17;;;;;;;2.00;67.55;96609.88;5073135;28;20451;-66
2021/01/27 08:21:51;;;;;;;8.60;4.40;;;;;;;1.88;68.38;96606.44;5089986;28;20935;-67
2021/01/27 08:24:35;;;;;;;7.63;5.17;;;;;;;2.66;66.41;96614.44;5089799;28;20181;-68
2021/01/27 08:27:10;;;;;;;5.87;4.40;;;;;;;2.86;65.75;96601.72;5089524;28;20601;-68
2021/01/27 08:29:40;;;;;;;5.63;4.43;;;;;;;2.35;66.84;96603.00;5089856;28;20448;-68
2021/01/27 08:32:27;;;;;;;5.70;4.20;;;;;;;2.79;66.08;96610.91;5071941;28;20420;-67
2021/01/27 08:34:58;;;;;;;4.80;3.97;;;;;;;2.13;67.50;96604.63;5089696;28;20453;-67
2021/01/27 08:37:30;;;;;;;14.23;4.17;;;;;;;2.47;67.43;96602.09;5089855;28;20582;-66
2021/01/27 08:40:30;;;;;;;4.07;3.33;;;;;;;2.83;66.36;96592.44;5089623;28;20431;-69
2021/01/27 08:42:58;;;;;;;8.47;5.20;;;;;;;3.05;65.52;96601.13;5070534;28;20439;-67
2021/01/27 08:45:24;;;;;;;8.67;4.63;;;;;;;2.88;66.38;96594.66;5089463;28;20523;-70
2021/01/27 08:47:51;;;;;;;5.80;4.80;;;;;;;3.10;65.82;96592.97;5090163;28;20886;-66
2021/01/27 08:50:35;;;;;;;7.00;5.27;;;;;;;3.31;64.81;96591.31;5091551;28;20201;-68
2021/01/27 08:53:28;;;;;;;4.73;3.73;;;;;;;3.10;65.12;96598.16;5091395;28;20407;-66
2021/01/27 08:55:56;;;;;;;6.33;4.60;;;;;;;3.28;64.72;96590.72;5072909;28;20424;-66
2021/01/27 08:58:22;;;;;;;8.13;4.70;;;;;;;3.29;65.05;96588.00;5084722;28;20440;-68
2021/01/27 09:00:49;;;;;;;6.50;4.50;;;;;;;3.15;65.58;96596.84;5091169;28;20926;-68
2021/01/27 09:03:37;;;;;;;7.17;4.43;;;;;;;2.99;65.53;96586.88;5091287;28;20547;-69
2021/01/27 09:06:04;;;;;;;9.50;4.80;;;;;;;3.01;65.76;96589.38;5091415;28;20868;-67
2021/01/27 09:08:34;;;;;;;6.53;4.17;;;;;;;3.03;65.88;96588.31;5091250;28;20432;-67
2021/01/27 09:11:02;;;;;;;3.87;3.47;;;;;;;2.92;65.41;96590.91;5091342;28;20984;-67
2021/01/27 09:13:41;;;;;;;6.10;4.93;;;;;;;3.15;65.38;96593.47;5091255;28;20769;-66
2021/01/27 09:16:16;;;;;;;6.40;4.80;;;;;;;2.89;66.22;96589.38;5087748;28;20408;-67
2021/01/27 09:18:44;;;;;;;9.17;4.60;;;;;;;2.95;65.89;96590.69;5096251;28;20958;-67
2021/01/27 09:21:13;;;;;;;7.00;5.23;;;;;;;2.74;66.37;96585.41;5083551;28;20828;-69
2021/01/27 09:23:40;;;;;;;9.40;5.10;;;;;;;2.42;66.78;96584.34;5092174;28;20419;-67
2021/01/27 09:26:36;;;;;;;7.50;4.73;;;;;;;2.68;66.61;96591.03;5094627;28;20447;-68
2021/01/27 09:29:14;;;;;;;8.87;5.60;;;;;;;2.76;66.23;96578.34;5096016;28;20432;-67
2021/01/27 09:31:41;;;;;;;9.27;5.30;;;;;;;2.89;66.29;96576.44;5096304;28;20978;-66
2021/01/27 09:34:33;;;;;;;8.53;5.50;;;;;;;2.84;66.48;96573.38;5095426;28;20462;-68
2021/01/27 09:37:03;;;;;;;11.63;6.07;;;;;;;2.85;66.25;96574.19;5095360;28;20962;-68
2021/01/27 09:39:32;;;;;;;7.40;5.43;;;;;;;2.69;66.39;96569.38;5095252;28;20473;-67
2021/01/27 09:42:01;;;;;;;7.23;5.20;;;;;;;2.87;66.33;96569.72;5095388;28;20415;-67
2021/01/27 09:44:36;;;;;;;9.70;5.83;;;;;;;3.03;65.85;96558.97;5095471;28;20451;-66
2021/01/27 09:47:20;;;;;;;6.33;4.60;;;;;;;2.71;66.11;96570.09;5094158;28;20528;-69
2021/01/27 09:49:49;;;;;;;11.10;4.50;;;;;;;2.78;66.04;96555.72;5091866;28;20408;-68
2021/01/27 09:52:16;;;;;;;5.60;3.97;;;;;;;2.41;66.78;96554.22;5095738;28;20426;-66
2021/01/27 09:54:44;;;;;;;17.30;4.27;;;;;;;2.74;66.64;96556.94;5094658;28;20484;-67
2021/01/27 09:57:11;;;;;;;6.50;3.90;;;;;;;2.85;66.09;96554.31;5105961;28;20436;-68
2021/01/27 09:59:38;;;;;;;7.00;4.57;;;;;;;2.70;66.02;96546.00;5110961;28;20487;-68
2021/01/27 10:02:04;;;;;;;7.93;5.20;;;;;;;2.51;66.27;96553.53;5098426;28;20504;-69
2021/01/27 10:04:33;;;;;;;11.03;4.40;;;;;;;2.76;66.48;96537.75;5094189;28;20416;-66
2021/01/27 10:07:34;;;;;;;5.70;3.80;;;;;;;2.85;66.46;96523.25;5095503;28;20474;-67
2021/01/27 10:10:15;;;;;;;73.57;10.03;;;;;;;2.87;66.95;96523.13;5074753;28;20434;-67
2021/01/27 10:12:42;;;;;;;7.30;4.60;;;;;;;2.87;67.01;96516.22;5086183;28;20416;-67
2021/01/27 10:15:25;;;;;;;6.30;3.70;;;;;;;2.99;65.72;96518.75;5090521;28;20447;-66
2021/01/27 10:18:10;;;;;;;8.63;4.00;;;;;;;3.19;65.32;96515.41;5093019;28;20449;-67
2021/01/27 10:20:37;;;;;;;5.20;3.30;;;;;;;3.13;65.43;96504.72;5068588;28;20477;-66
2021/01/27 10:23:12;;;;;;;4.90;3.60;;;;;;;3.39;64.62;96510.41;5075288;28;20468;-66
2021/01/27 10:25:42;;;;;;;5.23;3.70;;;;;;;3.36;64.79;96508.03;5093942;28;20447;-67
2021/01/27 10:28:11;;;;;;;6.53;3.30;;;;;;;3.03;64.78;96507.19;5093552;28;20510;-66
2021/01/27 10:30:59;;;;;;;7.13;3.40;;;;;;;3.44;64.57;96516.00;5094412;28;20416;-67
2021/01/27 10:33:42;;;;;;;5.13;3.30;;;;;;;3.67;63.83;96508.13;5094857;28;20412;-65
2021/01/27 10:36:26;;;;;;;4.90;2.90;;;;;;;3.52;63.55;96510.22;5094748;28;20785;-68
2021/01/27 10:39:30;;;;;;;4.60;3.73;;;;;;;3.77;63.42;96498.66;5093603;28;21005;-71
2021/01/27 10:42:05;;;;;;;3.57;3.27;;;;;;;3.73;62.90;96502.44;5094333;28;20438;-69
2021/01/27 10:44:35;;;;;;;8.73;3.17;;;;;;;3.79;63.00;96507.09;5094223;28;20419;-67
2021/01/27 10:47:07;;;;;;;6.07;3.00;;;;;;;3.70;63.18;96500.09;5094632;28;20515;-66
2021/01/27 10:49:37;;;;;;;7.70;3.67;;;;;;;3.63;63.27;96504.16;5094672;28;20431;-67
2021/01/27 10:52:05;;;;;;;5.07;3.40;;;;;;;3.88;62.54;96497.75;5090178;28;20440;-69
2021/01/27 10:54:32;;;;;;;5.07;3.30;;;;;;;3.72;62.65;96500.81;5089563;28;20430;-67
2021/01/27 10:56:58;;;;;;;6.40;3.73;;;;;;;3.72;62.50;96506.00;5094291;28;20428;-66
2021/01/27 10:59:24;;;;;;;5.10;3.50;;;;;;;3.89;62.81;96496.00;5093618;28;20451;-67
2021/01/27 11:01:50;;;;;;;12.30;4.27;;;;;;;3.69;63.44;96504.47;5092780;28;20667;-67
2021/01/27 11:04:16;;;;;;;5.03;3.53;;;;;;;3.76;64.00;96498.78;5093776;28;20435;-67
2021/01/27 11:06:43;;;;;;;4.63;3.50;;;;;;;3.53;64.07;96501.50;5094142;28;20807;-67
2021/01/27 11:09:09;;;;;;;6.20;3.80;;;;;;;3.66;64.16;96503.88;5093373;28;20651;-67
2021/01/27 11:11:36;;;;;;;4.53;3.83;;;;;;;3.98;63.34;96495.22;5092558;28;20764;-66
2021/01/27 11:14:05;;;;;;;5.43;3.07;;;;;;;4.13;62.86;96499.13;5093556;28;20442;-66
2021/01/27 11:16:31;;;;;;;7.03;4.13;;;;;;;3.70;63.44;96500.09;5093386;28;20416;-68
2021/01/27 11:18:57;;;;;;;6.50;3.70;;;;;;;3.79;63.60;96493.34;5093314;28;20816;-68
2021/01/27 11:21:22;;;;;;;7.90;2.97;;;;;;;3.75;62.87;96497.13;5093833;28;20281;-67
2021/01/27 11:23:48;;;;;;;9.93;3.77;;;;;;;3.94;62.53;96494.66;5093364;28;20178;-67
2021/01/27 11:26:20;;;;;;;4.07;3.30;;;;;;;4.11;62.48;96489.81;5093674;28;20285;-67
2021/01/27 11:28:48;;;;;;;2.87;2.57;;;;;;;3.94;61.66;96497.25;5093591;28;20205;-67
2021/01/27 11:31:15;;;;;;;7.63;2.97;;;;;;;3.79;63.12;96499.34;5093320;28;20451;-69
2021/01/27 11:33:42;;;;;;;3.77;2.53;;;;;;;4.22;62.16;96496.69;5093778;28;20415;-65
2021/01/27 11:36:09;;;;;;;9.33;2.87;;;;;;;4.30;61.55;96495.09;5093850;28;20422;-66
2021/01/27 11:38:35;;;;;;;4.53;3.50;;;;;;;4.51;61.30;96481.25;5072171;28;20950;-66
2021/01/27 11:41:00;;;;;;;3.33;2.70;;;;;;;4.52;60.63;96474.28;5092302;28;20419;-66
2021/01/27 11:43:26;;;;;;;3.27;2.37;;;;;;;4.84;60.42;96481.03;5092320;28;20208;-66
2021/01/27 11:45:52;;;;;;;2.37;2.17;;;;;;;4.56;60.48;96467.84;5091640;28;20216;-65
2021/01/27 11:48:18;;;;;;;2.30;2.10;;;;;;;3.95;62.00;96472.13;5093564;28;20205;-67
2021/01/27 11:50:44;;;;;;;4.50;2.10;;;;;;;4.03;61.49;96466.31;5092701;28;20531;-69
2021/01/27 11:53:09;;;;;;;2.10;1.90;;;;;;;4.38;61.00;96460.72;5093989;28;20423;-67
2021/01/27 11:55:37;;;;;;;5.40;2.67;;;;;;;4.06;61.27;96451.31;5093225;28;20180;-65
2021/01/27 11:58:03;;;;;;;2.67;1.93;;;;;;;4.13;61.32;96452.44;5093050;28;20205;-68
2021/01/27 12:00:30;;;;;;;8.40;3.87;;;;;;;4.00;61.71;96446.66;5091017;28;20473;-66
2021/01/27 12:02:57;;;;;;;8.87;4.40;;;;;;;3.58;63.21;96442.34;5092494;28;20215;-66
2021/01/27 12:05:22;;;;;;;3.10;2.20;;;;;;;3.84;63.11;96441.94;5092321;28;20504;-67
2021/01/27 12:07:48;;;;;;;6.67;3.17;;;;;;;3.82;63.43;96438.66;5091759;28;20962;-67